sensor_id;sensor_type;location;lat;lon;timestamp;pressure;altitude;pressure_sealevel;temperature;humidity
37368;BME280;23240;43.210;27.910;2022-11-02T00:02:03;101645.66;;;12.42;100.00
37368;BME280;23240;43.210;27.910;2022-11-02T00:04:28;101644.00;;;12.28;100.00
37368;BME280;23240;43.210;27.910;2022-11-02T00:06:54;101635.91;;;12.17;100.00
37368;BME280;23240;43.210;27.910;2022-11-02T00:09:19;101643.22;;;12.15;100.00
37368;BME280;23240;43.210;27.910;2022-11-02T00:11:45;101638.94;;;12.12;100.00
37368;BME280;23240;43.210;27.910;2022-11-02T00:14:10;101643.91;;;12.05;100.00
37368;BME280;23240;43.210;27.910;2022-11-02T00:16:37;101638.34;;;11.96;100.00
37368;BME280;23240;43.210;27.910;2022-11-02T00:19:05;101638.69;;;11.91;100.00
37368;BME280;23240;43.210;27.910;2022-11-02T00:21:32;101637.31;;;11.86;100.00
37368;BME280;23240;43.210;27.910;2022-11-02T00:23:59;101634.28;;;11.90;100.00
37368;BME280;23240;43.210;27.910;2022-11-02T00:26:26;101630.63;;;11.91;100.00
37368;BME280;23240;43.210;27.910;2022-11-02T00:28:52;101627.19;;;11.89;100.00
37368;BME280;23240;43.210;27.910;2022-11-02T00:31:18;101623.97;;;11.84;100.00
37368;BME280;23240;43.210;27.910;2022-11-02T00:33:44;101617.75;;;11.83;100.00
37368;BME280;23240;43.210;27.910;2022-11-02T00:36:09;101616.22;;;11.79;100.00
37368;BME280;23240;43.210;27.910;2022-11-02T00:38:35;101619.16;;;11.76;100.00
37368;BME280;23240;43.210;27.910;2022-11-02T00:41:00;101616.69;;;11.73;100.00
37368;BME280;23240;43.210;27.910;2022-11-02T00:43:26;101619.81;;;11.67;100.00
37368;BME280;23240;43.210;27.910;2022-11-02T00:45:51;101611.97;;;11.64;100.00
37368;BME280;23240;43.210;27.910;2022-11-02T00:48:17;101608.97;;;11.69;100.00
37368;BME280;23240;43.210;27.910;2022-11-02T00:50:42;101609.59;;;11.72;100.00
37368;BME280;23240;43.210;27.910;2022-11-02T00:53:08;101611.56;;;11.70;100.00
37368;BME280;23240;43.210;27.910;2022-11-02T00:55:33;101598.22;;;11.69;100.00
37368;BME280;23240;43.210;27.910;2022-11-02T00:57:59;101608.31;;;11.65;100.00
37368;BME280;23240;43.210;27.910;2022-11-02T01:00:24;101608.31;;;11.65;100.00
37368;BME280;23240;43.210;27.910;2022-11-02T01:02:50;101597.59;;;11.65;100.00
37368;BME280;23240;43.210;27.910;2022-11-02T01:05:15;101585.13;;;11.64;100.00
37368;BME280;23240;43.210;27.910;2022-11-02T01:07:41;101599.97;;;11.57;100.00
37368;BME280;23240;43.210;27.910;2022-11-02T01:10:08;101601.81;;;11.44;100.00
37368;BME280;23240;43.210;27.910;2022-11-02T01:12:38;101598.63;;;11.39;100.00
37368;BME280;23240;43.210;27.910;2022-11-02T01:15:06;101591.88;;;11.33;100.00
37368;BME280;23240;43.210;27.910;2022-11-02T01:17:32;101588.53;;;11.29;100.00
37368;BME280;23240;43.210;27.910;2022-11-02T01:19:58;101592.41;;;11.25;100.00
37368;BME280;23240;43.210;27.910;2022-11-02T01:22:23;101583.63;;;11.23;100.00
37368;BME280;23240;43.210;27.910;2022-11-02T01:24:49;101589.31;;;11.19;100.00
37368;BME280;23240;43.210;27.910;2022-11-02T01:27:14;101585.56;;;11.09;100.00
37368;BME280;23240;43.210;27.910;2022-11-02T01:29:40;101589.31;;;11.06;100.00
37368;BME280;23240;43.210;27.910;2022-11-02T01:32:05;101580.28;;;11.07;100.00
37368;BME280;23240;43.210;27.910;2022-11-02T01:34:31;101582.66;;;10.99;100.00
37368;BME280;23240;43.210;27.910;2022-11-02T01:36:57;101581.03;;;10.96;100.00
37368;BME280;23240;43.210;27.910;2022-11-02T01:39:22;101576.44;;;10.98;100.00
37368;BME280;23240;43.210;27.910;2022-11-02T01:41:52;101572.59;;;10.90;100.00
37368;BME280;23240;43.210;27.910;2022-11-02T01:44:34;101574.50;;;10.88;100.00
37368;BME280;23240;43.210;27.910;2022-11-02T01:47:04;101564.22;;;10.81;100.00
37368;BME280;23240;43.210;27.910;2022-11-02T01:49:33;101567.31;;;10.75;100.00
37368;BME280;23240;43.210;27.910;2022-11-02T01:52:09;101567.44;;;10.74;100.00
37368;BME280;23240;43.210;27.910;2022-11-02T01:54:40;101555.94;;;10.72;100.00
37368;BME280;23240;43.210;27.910;2022-11-02T01:57:09;101551.16;;;10.64;100.00
37368;BME280;23240;43.210;27.910;2022-11-02T01:59:43;101556.91;;;10.58;100.00
37368;BME280;23240;43.210;27.910;2022-11-02T02:02:16;101551.78;;;10.55;100.00
37368;BME280;23240;43.210;27.910;2022-11-02T02:04:43;101561.63;;;10.54;100.00
37368;BME280;23240;43.210;27.910;2022-11-02T02:07:11;101555.41;;;10.54;100.00
37368;BME280;23240;43.210;27.910;2022-11-02T02:09:37;101558.00;;;10.55;100.00
37368;BME280;23240;43.210;27.910;2022-11-02T02:12:04;101551.22;;;10.50;100.00
37368;BME280;23240;43.210;27.910;2022-11-02T02:14:30;101549.09;;;10.55;100.00
37368;BME280;23240;43.210;27.910;2022-11-02T02:17:41;101554.34;;;10.57;100.00
37368;BME280;23240;43.210;27.910;2022-11-02T02:26:39;101562.25;;;10.45;100.00
37368;BME280;23240;43.210;27.910;2022-11-02T02:29:11;101559.66;;;10.44;100.00
37368;BME280;23240;43.210;27.910;2022-11-02T02:32:02;101566.66;;;10.46;100.00
37368;BME280;23240;43.210;27.910;2022-11-02T02:34:38;101564.72;;;10.48;100.00
37368;BME280;23240;43.210;27.910;2022-11-02T02:37:15;101559.56;;;10.45;100.00
37368;BME280;23240;43.210;27.910;2022-11-02T02:45:00;101565.06;;;10.57;100.00
37368;BME280;23240;43.210;27.910;2022-11-02T02:47:31;101560.13;;;10.63;100.00
37368;BME280;23240;43.210;27.910;2022-11-02T02:50:05;101568.59;;;10.57;100.00
37368;BME280;23240;43.210;27.910;2022-11-02T02:52:33;101568.69;;;10.55;100.00
37368;BME280;23240;43.210;27.910;2022-11-02T02:55:03;101559.03;;;10.53;100.00
37368;BME280;23240;43.210;27.910;2022-11-02T02:57:30;101554.84;;;10.49;100.00
37368;BME280;23240;43.210;27.910;2022-11-02T02:59:59;101560.63;;;10.43;100.00
37368;BME280;23240;43.210;27.910;2022-11-02T03:02:31;101554.94;;;10.35;100.00
37368;BME280;23240;43.210;27.910;2022-11-02T03:04:58;101551.34;;;10.21;100.00
37368;BME280;23240;43.210;27.910;2022-11-02T03:07:26;101550.16;;;10.13;100.00
37368;BME280;23240;43.210;27.910;2022-11-02T03:10:24;101547.88;;;10.07;100.00
37368;BME280;23240;43.210;27.910;2022-11-02T03:13:34;101544.03;;;10.11;100.00
37368;BME280;23240;43.210;27.910;2022-11-02T03:16:02;101541.88;;;10.03;100.00
37368;BME280;23240;43.210;27.910;2022-11-02T03:18:40;101532.50;;;9.96;100.00
37368;BME280;23240;43.210;27.910;2022-11-02T03:29:38;101528.97;;;9.95;100.00
37368;BME280;23240;43.210;27.910;2022-11-02T03:32:35;101522.44;;;9.87;100.00
37368;BME280;23240;43.210;27.910;2022-11-02T03:35:10;101524.34;;;9.85;100.00
37368;BME280;23240;43.210;27.910;2022-11-02T03:37:40;101521.31;;;9.76;100.00
37368;BME280;23240;43.210;27.910;2022-11-02T03:40:13;101516.38;;;9.70;100.00
37368;BME280;23240;43.210;27.910;2022-11-02T03:42:42;101520.19;;;9.66;100.00
37368;BME280;23240;43.210;27.910;2022-11-02T03:45:14;101516.03;;;9.62;100.00
37368;BME280;23240;43.210;27.910;2022-11-02T03:47:46;101518.31;;;9.68;100.00
37368;BME280;23240;43.210;27.910;2022-11-02T03:50:18;101509.50;;;9.66;100.00
37368;BME280;23240;43.210;27.910;2022-11-02T03:52:46;101512.00;;;9.69;100.00
37368;BME280;23240;43.210;27.910;2022-11-02T03:55:18;101509.50;;;9.66;100.00
37368;BME280;23240;43.210;27.910;2022-11-02T03:57:49;101511.44;;;9.64;100.00
37368;BME280;23240;43.210;27.910;2022-11-02T04:00:20;101507.66;;;9.54;100.00
37368;BME280;23240;43.210;27.910;2022-11-02T04:02:48;101511.28;;;9.53;100.00
37368;BME280;23240;43.210;27.910;2022-11-02T04:05:15;101510.91;;;9.45;100.00
37368;BME280;23240;43.210;27.910;2022-11-02T04:07:44;101506.91;;;9.38;100.00
37368;BME280;23240;43.210;27.910;2022-11-02T04:10:29;101504.84;;;9.29;100.00
37368;BME280;23240;43.210;27.910;2022-11-02T04:12:55;101510.66;;;9.21;100.00
37368;BME280;23240;43.210;27.910;2022-11-02T04:15:39;101506.47;;;9.17;100.00
37368;BME280;23240;43.210;27.910;2022-11-02T04:18:04;101504.94;;;9.13;100.00
37368;BME280;23240;43.210;27.910;2022-11-02T04:20:52;101496.84;;;9.14;100.00
37368;BME280;23240;43.210;27.910;2022-11-02T04:23:17;101506.75;;;9.12;100.00
37368;BME280;23240;43.210;27.910;2022-11-02T04:26:01;101501.34;;;8.99;100.00
37368;BME280;23240;43.210;27.910;2022-11-02T04:28:27;101498.41;;;8.90;100.00
37368;BME280;23240;43.210;27.910;2022-11-02T04:30:52;101491.41;;;8.87;100.00
37368;BME280;23240;43.210;27.910;2022-11-02T04:33:18;101496.09;;;8.84;100.00
37368;BME280;23240;43.210;27.910;2022-11-02T04:36:04;101495.72;;;8.75;100.00
37368;BME280;23240;43.210;27.910;2022-11-02T04:38:30;101496.38;;;8.65;100.00
37368;BME280;23240;43.210;27.910;2022-11-02T04:41:13;101486.53;;;8.65;100.00
37368;BME280;23240;43.210;27.910;2022-11-02T04:43:57;101495.31;;;8.53;100.00
37368;BME280;23240;43.210;27.910;2022-11-02T04:46:26;101494.56;;;8.51;100.00
37368;BME280;23240;43.210;27.910;2022-11-02T04:48:52;101500.84;;;8.50;100.00
37368;BME280;23240;43.210;27.910;2022-11-02T04:51:18;101495.59;;;8.48;100.00
37368;BME280;23240;43.210;27.910;2022-11-02T04:53:45;101502.56;;;8.51;100.00
37368;BME280;23240;43.210;27.910;2022-11-02T04:56:11;101503.50;;;8.50;100.00
37368;BME280;23240;43.210;27.910;2022-11-02T04:58:37;101506.00;;;8.53;100.00
37368;BME280;23240;43.210;27.910;2022-11-02T05:01:12;101511.50;;;8.50;100.00
37368;BME280;23240;43.210;27.910;2022-11-02T05:03:38;101508.84;;;8.50;100.00
37368;BME280;23240;43.210;27.910;2022-11-02T05:06:04;101504.28;;;8.52;100.00
37368;BME280;23240;43.210;27.910;2022-11-02T05:08:30;101514.97;;;8.52;100.00
37368;BME280;23240;43.210;27.910;2022-11-02T05:10:56;101516.13;;;8.62;100.00
37368;BME280;23240;43.210;27.910;2022-11-02T05:13:23;101517.72;;;8.65;100.00
37368;BME280;23240;43.210;27.910;2022-11-02T05:15:49;101517.94;;;8.76;100.00
37368;BME280;23240;43.210;27.910;2022-11-02T05:18:14;101519.56;;;8.79;100.00
37368;BME280;23240;43.210;27.910;2022-11-02T05:20:40;101523.88;;;8.81;100.00
37368;BME280;23240;43.210;27.910;2022-11-02T05:23:06;101529.41;;;8.92;100.00
37368;BME280;23240;43.210;27.910;2022-11-02T05:25:32;101527.97;;;9.01;100.00
37368;BME280;23240;43.210;27.910;2022-11-02T05:27:57;101534.63;;;9.08;100.00
37368;BME280;23240;43.210;27.910;2022-11-02T05:30:23;101538.25;;;9.07;100.00
37368;BME280;23240;43.210;27.910;2022-11-02T05:32:49;101540.47;;;9.00;100.00
37368;BME280;23240;43.210;27.910;2022-11-02T05:35:14;101536.28;;;8.96;100.00
37368;BME280;23240;43.210;27.910;2022-11-02T05:37:40;101540.47;;;9.00;100.00
37368;BME280;23240;43.210;27.910;2022-11-02T05:40:06;101539.34;;;9.05;100.00
37368;BME280;23240;43.210;27.910;2022-11-02T05:42:34;101539.69;;;8.98;100.00
37368;BME280;23240;43.210;27.910;2022-11-02T05:44:59;101542.56;;;8.95;100.00
37368;BME280;23240;43.210;27.910;2022-11-02T05:47:25;101549.75;;;8.95;100.00
37368;BME280;23240;43.210;27.910;2022-11-02T05:49:50;101544.41;;;8.95;100.00
37368;BME280;23240;43.210;27.910;2022-11-02T05:52:15;101544.19;;;8.98;100.00
37368;BME280;23240;43.210;27.910;2022-11-02T05:54:41;101547.63;;;9.00;100.00
37368;BME280;23240;43.210;27.910;2022-11-02T05:57:06;101553.72;;;9.02;100.00
37368;BME280;23240;43.210;27.910;2022-11-02T05:59:32;101549.53;;;8.98;100.00
37368;BME280;23240;43.210;27.910;2022-11-02T06:01:57;101549.34;;;9.01;100.00
37368;BME280;23240;43.210;27.910;2022-11-02T06:04:23;101543.16;;;9.15;100.00
37368;BME280;23240;43.210;27.910;2022-11-02T06:06:48;101543.59;;;9.21;100.00
37368;BME280;23240;43.210;27.910;2022-11-02T06:09:14;101544.69;;;9.19;100.00
37368;BME280;23240;43.210;27.910;2022-11-02T06:11:39;101536.81;;;9.30;100.00
37368;BME280;23240;43.210;27.910;2022-11-02T06:14:05;101540.81;;;9.37;100.00
37368;BME280;23240;43.210;27.910;2022-11-02T06:16:30;101533.47;;;9.41;100.00
37368;BME280;23240;43.210;27.910;2022-11-02T06:18:56;101538.13;;;9.37;100.00
37368;BME280;23240;43.210;27.910;2022-11-02T06:21:22;101535.75;;;9.33;100.00
37368;BME280;23240;43.210;27.910;2022-11-02T06:23:47;101541.28;;;9.44;100.00
37368;BME280;23240;43.210;27.910;2022-11-02T06:26:13;101546.06;;;9.53;100.00
37368;BME280;23240;43.210;27.910;2022-11-02T06:28:39;101548.47;;;9.70;100.00
37368;BME280;23240;43.210;27.910;2022-11-02T06:31:05;101543.13;;;9.70;100.00
37368;BME280;23240;43.210;27.910;2022-11-02T06:33:30;101541.97;;;9.74;100.00
37368;BME280;23240;43.210;27.910;2022-11-02T06:36:01;101540.53;;;9.96;100.00
37368;BME280;23240;43.210;27.910;2022-11-02T06:38:26;101543.94;;;10.12;100.00
37368;BME280;23240;43.210;27.910;2022-11-02T06:40:53;101534.94;;;10.13;100.00
37368;BME280;23240;43.210;27.910;2022-11-02T06:43:19;101542.00;;;10.14;100.00
37368;BME280;23240;43.210;27.910;2022-11-02T06:45:45;101539.94;;;10.05;100.00
37368;BME280;23240;43.210;27.910;2022-11-02T06:48:11;101543.28;;;10.09;100.00
37368;BME280;23240;43.210;27.910;2022-11-02T06:50:36;101545.94;;;10.09;100.00
37368;BME280;23240;43.210;27.910;2022-11-02T06:53:02;101541.63;;;10.20;100.00
37368;BME280;23240;43.210;27.910;2022-11-02T06:55:27;101547.16;;;10.44;100.00
37368;BME280;23240;43.210;27.910;2022-11-02T06:57:52;101543.72;;;10.55;100.00
37368;BME280;23240;43.210;27.910;2022-11-02T07:00:19;101531.53;;;10.64;100.00
37368;BME280;23240;43.210;27.910;2022-11-02T07:02:45;101531.50;;;10.76;100.00
37368;BME280;23240;43.210;27.910;2022-11-02T07:05:12;101527.13;;;10.88;100.00
37368;BME280;23240;43.210;27.910;2022-11-02T07:07:38;101528.81;;;11.02;100.00
37368;BME280;23240;43.210;27.910;2022-11-02T07:10:03;101520.97;;;11.24;100.00
37368;BME280;23240;43.210;27.910;2022-11-02T07:12:31;101517.41;;;11.37;100.00
37368;BME280;23240;43.210;27.910;2022-11-02T07:14:57;101510.16;;;11.50;100.00
37368;BME280;23240;43.210;27.910;2022-11-02T07:17:22;101514.47;;;11.40;100.00
37368;BME280;23240;43.210;27.910;2022-11-02T07:19:48;101512.63;;;11.53;100.00
37368;BME280;23240;43.210;27.910;2022-11-02T07:22:13;101514.00;;;11.58;100.00
37368;BME280;23240;43.210;27.910;2022-11-02T07:24:39;101512.75;;;11.75;100.00
37368;BME280;23240;43.210;27.910;2022-11-02T07:27:04;101517.78;;;11.80;100.00
37368;BME280;23240;43.210;27.910;2022-11-02T07:29:30;101508.66;;;11.82;100.00
37368;BME280;23240;43.210;27.910;2022-11-02T07:31:55;101505.19;;;11.93;100.00
37368;BME280;23240;43.210;27.910;2022-11-02T07:34:21;101502.09;;;12.11;100.00
37368;BME280;23240;43.210;27.910;2022-11-02T07:36:46;101496.25;;;12.17;100.00
37368;BME280;23240;43.210;27.910;2022-11-02T07:39:12;101491.88;;;12.27;100.00
37368;BME280;23240;43.210;27.910;2022-11-02T07:41:37;101485.31;;;12.42;100.00
37368;BME280;23240;43.210;27.910;2022-11-02T07:44:03;101485.81;;;12.47;100.00
37368;BME280;23240;43.210;27.910;2022-11-02T07:46:28;101480.56;;;12.57;100.00
37368;BME280;23240;43.210;27.910;2022-11-02T07:48:54;101476.94;;;12.58;100.00
37368;BME280;23240;43.210;27.910;2022-11-02T07:51:19;101473.13;;;12.60;100.00
37368;BME280;23240;43.210;27.910;2022-11-02T07:53:45;101471.31;;;12.72;100.00
37368;BME280;23240;43.210;27.910;2022-11-02T07:56:10;101461.91;;;12.89;100.00
37368;BME280;23240;43.210;27.910;2022-11-02T07:58:36;101453.94;;;13.10;100.00
37368;BME280;23240;43.210;27.910;2022-11-02T08:01:02;101455.16;;;13.28;100.00
37368;BME280;23240;43.210;27.910;2022-11-02T08:03:28;101450.72;;;13.50;100.00
37368;BME280;23240;43.210;27.910;2022-11-02T08:05:54;101446.47;;;13.68;100.00
37368;BME280;23240;43.210;27.910;2022-11-02T08:08:21;101431.75;;;13.83;100.00
37368;BME280;23240;43.210;27.910;2022-11-02T08:10:49;101425.31;;;13.96;100.00
37368;BME280;23240;43.210;27.910;2022-11-02T08:13:20;101427.94;;;14.07;100.00
37368;BME280;23240;43.210;27.910;2022-11-02T08:15:52;101417.03;;;14.29;100.00
37368;BME280;23240;43.210;27.910;2022-11-02T08:18:23;101419.13;;;14.47;100.00
37368;BME280;23240;43.210;27.910;2022-11-02T08:20:49;101412.16;;;14.65;100.00
37368;BME280;23240;43.210;27.910;2022-11-02T08:23:16;101401.16;;;14.87;100.00
37368;BME280;23240;43.210;27.910;2022-11-02T08:25:43;101405.34;;;15.11;100.00
37368;BME280;23240;43.210;27.910;2022-11-02T08:28:15;101397.41;;;15.19;100.00
37368;BME280;23240;43.210;27.910;2022-11-02T08:30:41;101393.59;;;15.31;100.00
37368;BME280;23240;43.210;27.910;2022-11-02T08:33:10;101389.34;;;15.48;100.00
37368;BME280;23240;43.210;27.910;2022-11-02T08:35:38;101378.00;;;15.64;100.00
37368;BME280;23240;43.210;27.910;2022-11-02T08:38:04;101373.59;;;15.82;100.00
37368;BME280;23240;43.210;27.910;2022-11-02T08:40:31;101379.69;;;15.84;100.00
37368;BME280;23240;43.210;27.910;2022-11-02T08:43:02;101375.13;;;15.94;100.00
37368;BME280;23240;43.210;27.910;2022-11-02T08:45:29;101375.25;;;16.03;100.00
37368;BME280;23240;43.210;27.910;2022-11-02T08:47:55;101373.22;;;16.14;100.00
37368;BME280;23240;43.210;27.910;2022-11-02T08:50:21;101362.56;;;16.23;100.00
37368;BME280;23240;43.210;27.910;2022-11-02T08:52:47;101364.78;;;16.37;100.00
37368;BME280;23240;43.210;27.910;2022-11-02T08:55:13;101366.13;;;16.60;100.00
37368;BME280;23240;43.210;27.910;2022-11-02T08:57:48;101359.41;;;16.74;100.00
37368;BME280;23240;43.210;27.910;2022-11-02T09:00:15;101356.31;;;16.87;100.00
37368;BME280;23240;43.210;27.910;2022-11-02T09:02:41;101358.00;;;16.98;100.00
37368;BME280;23240;43.210;27.910;2022-11-02T09:05:08;101356.47;;;17.13;100.00
37368;BME280;23240;43.210;27.910;2022-11-02T09:07:34;101349.28;;;17.21;100.00
37368;BME280;23240;43.210;27.910;2022-11-02T09:09:59;101346.78;;;17.28;100.00
37368;BME280;23240;43.210;27.910;2022-11-02T09:12:25;101337.41;;;17.40;100.00
37368;BME280;23240;43.210;27.910;2022-11-02T09:14:50;101343.00;;;17.57;100.00
37368;BME280;23240;43.210;27.910;2022-11-02T09:17:16;101338.03;;;17.70;100.00
37368;BME280;23240;43.210;27.910;2022-11-02T09:19:41;101330.22;;;17.85;100.00
37368;BME280;23240;43.210;27.910;2022-11-02T09:22:07;101328.94;;;17.97;100.00
37368;BME280;23240;43.210;27.910;2022-11-02T09:24:33;101326.84;;;18.17;100.00
37368;BME280;23240;43.210;27.910;2022-11-02T09:26:58;101317.44;;;18.29;100.00
37368;BME280;23240;43.210;27.910;2022-11-02T09:29:24;101307.66;;;18.36;100.00
37368;BME280;23240;43.210;27.910;2022-11-02T09:31:49;101300.94;;;18.48;100.00
37368;BME280;23240;43.210;27.910;2022-11-02T09:34:15;101299.94;;;18.58;100.00
37368;BME280;23240;43.210;27.910;2022-11-02T09:36:41;101293.53;;;18.67;100.00
37368;BME280;23240;43.210;27.910;2022-11-02T09:39:06;101288.31;;;18.73;100.00
37368;BME280;23240;43.210;27.910;2022-11-02T09:44:36;101278.72;;;18.95;100.00
37368;BME280;23240;43.210;27.910;2022-11-02T09:47:00;101275.47;;;19.00;100.00
37368;BME280;23240;43.210;27.910;2022-11-02T09:49:28;101269.25;;;19.16;100.00
37368;BME280;23240;43.210;27.910;2022-11-02T09:51:57;101268.75;;;19.20;100.00
37368;BME280;23240;43.210;27.910;2022-11-02T09:56:50;101254.28;;;19.28;100.00
37368;BME280;23240;43.210;27.910;2022-11-02T09:59:21;101245.13;;;19.29;100.00
37368;BME280;23240;43.210;27.910;2022-11-02T10:02:14;101243.25;;;19.38;100.00
37368;BME280;23240;43.210;27.910;2022-11-02T10:10:28;101235.25;;;19.52;100.00
37368;BME280;23240;43.210;27.910;2022-11-02T10:16:20;101223.06;;;19.73;94.84
37368;BME280;23240;43.210;27.910;2022-11-02T10:18:47;101219.28;;;19.82;93.29
37368;BME280;23240;43.210;27.910;2022-11-02T10:21:41;101210.59;;;19.95;90.08
37368;BME280;23240;43.210;27.910;2022-11-02T10:26:40;101208.50;;;20.05;87.50
37368;BME280;23240;43.210;27.910;2022-11-02T10:31:42;101194.66;;;20.23;85.40
37368;BME280;23240;43.210;27.910;2022-11-02T10:34:23;101182.72;;;20.32;85.30
37368;BME280;23240;43.210;27.910;2022-11-02T10:48:21;101167.97;;;20.81;79.30
37368;BME280;23240;43.210;27.910;2022-11-02T10:53:22;101169.72;;;20.96;74.55
37368;BME280;23240;43.210;27.910;2022-11-02T10:55:58;101163.19;;;21.05;73.71
37368;BME280;23240;43.210;27.910;2022-11-02T10:58:27;101167.03;;;21.11;73.63
37368;BME280;23240;43.210;27.910;2022-11-02T11:01:06;101160.50;;;21.20;71.26
37368;BME280;23240;43.210;27.910;2022-11-02T11:03:33;101159.56;;;21.28;69.59
37368;BME280;23240;43.210;27.910;2022-11-02T11:06:02;101159.16;;;21.39;68.76
37368;BME280;23240;43.210;27.910;2022-11-02T11:08:42;101153.97;;;21.44;69.10
37368;BME280;23240;43.210;27.910;2022-11-02T11:11:24;101155.66;;;21.45;68.62
37368;BME280;23240;43.210;27.910;2022-11-02T11:14:03;101145.06;;;21.50;67.87
37368;BME280;23240;43.210;27.910;2022-11-02T11:16:40;101143.16;;;21.66;65.85
37368;BME280;23240;43.210;27.910;2022-11-02T11:21:48;101132.66;;;21.77;65.40
37368;BME280;23240;43.210;27.910;2022-11-02T11:27:01;101126.72;;;21.74;67.45
37368;BME280;23240;43.210;27.910;2022-11-02T11:29:30;101117.50;;;21.90;65.55
37368;BME280;23240;43.210;27.910;2022-11-02T11:31:57;101122.56;;;21.93;64.47
37368;BME280;23240;43.210;27.910;2022-11-02T11:34:32;101127.47;;;21.97;64.20
37368;BME280;23240;43.210;27.910;2022-11-02T11:37:09;101116.34;;;21.99;63.15
37368;BME280;23240;43.210;27.910;2022-11-02T11:39:38;101113.31;;;22.08;61.20
37368;BME280;23240;43.210;27.910;2022-11-02T11:42:18;101114.88;;;22.11;61.64
37368;BME280;23240;43.210;27.910;2022-11-02T11:44:54;101109.47;;;22.18;60.64
37368;BME280;23240;43.210;27.910;2022-11-02T11:47:25;101104.22;;;22.16;61.27
37368;BME280;23240;43.210;27.910;2022-11-02T11:49:52;101096.94;;;22.23;60.87
37368;BME280;23240;43.210;27.910;2022-11-02T11:52:29;101094.94;;;22.32;58.90
37368;BME280;23240;43.210;27.910;2022-11-02T11:54:57;101100.81;;;22.29;59.10
37368;BME280;23240;43.210;27.910;2022-11-02T11:57:29;101087.84;;;22.38;57.85
37368;BME280;23240;43.210;27.910;2022-11-02T11:59:56;101092.47;;;22.37;58.08
37368;BME280;23240;43.210;27.910;2022-11-02T12:02:32;101088.69;;;22.38;58.39
37368;BME280;23240;43.210;27.910;2022-11-02T12:05:14;101083.63;;;22.56;55.76
37368;BME280;23240;43.210;27.910;2022-11-02T12:36:44;101053.00;;;22.82;53.94
37368;BME280;23240;43.210;27.910;2022-11-02T12:39:40;101047.94;;;22.79;52.63
37368;BME280;23240;43.210;27.910;2022-11-02T12:47:59;101045.38;;;22.99;51.21
37368;BME280;23240;43.210;27.910;2022-11-02T12:53:29;101038.13;;;23.13;48.86
37368;BME280;23240;43.210;27.910;2022-11-02T12:56:01;101043.06;;;23.31;49.22
37368;BME280;23240;43.210;27.910;2022-11-02T12:58:30;101033.59;;;23.33;48.65
37368;BME280;23240;43.210;27.910;2022-11-02T13:01:01;101037.84;;;23.36;48.33
37368;BME280;23240;43.210;27.910;2022-11-02T13:06:30;101030.34;;;23.51;45.25
37368;BME280;23240;43.210;27.910;2022-11-02T13:09:11;101032.50;;;23.63;45.31
37368;BME280;23240;43.210;27.910;2022-11-02T13:11:50;101038.66;;;23.65;45.29
37368;BME280;23240;43.210;27.910;2022-11-02T13:14:19;101044.13;;;23.71;43.90
37368;BME280;23240;43.210;27.910;2022-11-02T13:19:22;101034.91;;;23.79;39.93
37368;BME280;23240;43.210;27.910;2022-11-02T13:21:54;101035.94;;;23.78;40.38
37368;BME280;23240;43.210;27.910;2022-11-02T13:24:23;101046.31;;;23.89;39.57
37368;BME280;23240;43.210;27.910;2022-11-02T13:26:51;101053.28;;;24.05;48.60
37368;BME280;23240;43.210;27.910;2022-11-02T13:31:56;101055.03;;;23.30;68.46
37368;BME280;23240;43.210;27.910;2022-11-02T13:34:42;101053.44;;;22.86;83.09
37368;BME280;23240;43.210;27.910;2022-11-02T13:37:23;101056.03;;;22.45;89.83
37368;BME280;23240;43.210;27.910;2022-11-02T13:39:55;101046.97;;;22.23;96.04
37368;BME280;23240;43.210;27.910;2022-11-02T13:42:35;101057.00;;;22.01;100.00
37368;BME280;23240;43.210;27.910;2022-11-02T13:45:37;101055.00;;;21.73;100.00
37368;BME280;23240;43.210;27.910;2022-11-02T13:48:37;101060.84;;;21.55;100.00
37368;BME280;23240;43.210;27.910;2022-11-02T13:51:10;101058.88;;;21.35;100.00
37368;BME280;23240;43.210;27.910;2022-11-02T13:53:40;101060.31;;;21.08;100.00
37368;BME280;23240;43.210;27.910;2022-11-02T13:56:21;101060.50;;;20.91;100.00
37368;BME280;23240;43.210;27.910;2022-11-02T13:58:52;101074.72;;;20.78;100.00
37368;BME280;23240;43.210;27.910;2022-11-02T14:01:21;101074.03;;;20.62;100.00
37368;BME280;23240;43.210;27.910;2022-11-02T14:06:26;101072.28;;;20.46;100.00
37368;BME280;23240;43.210;27.910;2022-11-02T14:08:57;101078.97;;;20.35;100.00
37368;BME280;23240;43.210;27.910;2022-11-02T14:11:35;101070.34;;;20.32;100.00
37368;BME280;23240;43.210;27.910;2022-11-02T14:22:14;101073.69;;;20.11;100.00
37368;BME280;23240;43.210;27.910;2022-11-02T14:29:54;101074.09;;;19.99;100.00
37368;BME280;23240;43.210;27.910;2022-11-02T14:32:22;101074.50;;;19.88;100.00
37368;BME280;23240;43.210;27.910;2022-11-02T14:35:34;101079.97;;;19.80;100.00
37368;BME280;23240;43.210;27.910;2022-11-02T14:40:56;101094.47;;;19.56;100.00
37368;BME280;23240;43.210;27.910;2022-11-02T14:48:47;101088.97;;;19.25;100.00
37368;BME280;23240;43.210;27.910;2022-11-02T14:51:26;101096.47;;;19.15;100.00
37368;BME280;23240;43.210;27.910;2022-11-02T14:54:30;101097.00;;;19.02;100.00
37368;BME280;23240;43.210;27.910;2022-11-02T14:56:50;101100.91;;;18.91;100.00
37368;BME280;23240;43.210;27.910;2022-11-02T14:59:20;101099.03;;;18.84;100.00